createdAt,value
2023-05-10T00:00:47.671Z,13.15
2023-05-10T00:03:14.406Z,13.48
2023-05-10T00:05:41.445Z,12.77
2023-05-10T00:08:08.141Z,12.40
2023-05-10T00:10:34.862Z,12.50
2023-05-10T00:13:01.517Z,11.80
2023-05-10T00:15:28.264Z,12.25
2023-05-10T00:17:54.991Z,11.82
2023-05-10T00:20:21.701Z,12.02
2023-05-10T00:22:48.323Z,12.00
2023-05-10T00:25:15.021Z,12.65
2023-05-10T00:27:41.644Z,12.95
2023-05-10T00:30:08.924Z,12.00
2023-05-10T00:32:35.571Z,12.88
2023-05-10T00:35:02.255Z,13.13
2023-05-10T00:37:28.913Z,12.73
2023-05-10T00:39:55.640Z,13.18
2023-05-10T00:42:22.347Z,13.10
2023-05-10T00:44:49.502Z,13.57
2023-05-10T00:47:16.858Z,14.05
2023-05-10T00:49:43.978Z,13.85
2023-05-10T00:52:11.468Z,14.55
2023-05-10T00:54:38.262Z,14.18
2023-05-10T00:57:05.205Z,14.43
2023-05-10T00:59:31.913Z,13.73
2023-05-10T01:01:59.057Z,15.73
2023-05-10T01:04:29.351Z,14.55
2023-05-10T01:06:57.553Z,15.07
2023-05-10T01:09:24.309Z,14.80
2023-05-10T01:11:51.558Z,14.18
2023-05-10T01:14:19.775Z,13.80
2023-05-10T01:16:48.441Z,12.93
2023-05-10T01:19:26.515Z,12.18
2023-05-10T01:21:59.576Z,12.45
2023-05-10T01:24:54.276Z,12.90
2023-05-10T01:27:48.525Z,11.77
2023-05-10T01:32:54.499Z,12.35
2023-05-10T01:35:33.521Z,11.82
2023-05-10T01:38:10.721Z,11.35
2023-05-10T01:40:41.869Z,11.88
2023-05-10T01:43:19.490Z,10.98
2023-05-10T01:46:11.985Z,11.48
2023-05-10T01:48:49.879Z,11.63
2023-05-10T01:51:19.745Z,11.15
2023-05-10T01:53:47.427Z,11.77
2023-05-10T01:56:14.949Z,10.88
2023-05-10T01:58:46.539Z,10.98
2023-05-10T02:01:13.712Z,10.63
2023-05-10T02:03:41.396Z,10.93
2023-05-10T02:06:08.902Z,10.88
2023-05-10T02:08:37.472Z,10.93
2023-05-10T02:11:04.902Z,11.85
2023-05-10T02:13:32.994Z,11.45
2023-05-10T02:16:00.294Z,10.63
2023-05-10T02:18:28.058Z,10.73
2023-05-10T02:20:56.520Z,12.85
2023-05-10T02:23:24.432Z,12.45
2023-05-10T02:25:52.638Z,11.25
2023-05-10T02:28:22.427Z,12.18
2023-05-10T02:30:49.369Z,10.63
2023-05-10T02:33:18.176Z,11.60
2023-05-10T02:35:46.689Z,11.23
2023-05-10T02:38:14.588Z,11.25
2023-05-10T02:40:42.289Z,10.35
2023-05-10T02:43:13.500Z,10.90
2023-05-10T02:45:41.302Z,10.65
2023-05-10T02:48:09.895Z,10.45
2023-05-10T02:50:38.005Z,10.85
2023-05-10T02:53:12.607Z,11.13
2023-05-10T02:55:41.912Z,10.20
2023-05-10T02:58:08.874Z,10.32
2023-05-10T03:00:37.294Z,11.18
2023-05-10T03:03:04.126Z,11.57
2023-05-10T03:05:30.794Z,11.10
2023-05-10T03:08:04.687Z,11.05
2023-05-10T03:10:32.639Z,10.85
2023-05-10T03:13:07.391Z,10.52
2023-05-10T03:15:53.466Z,9.70
2023-05-10T03:18:23.847Z,10.52
2023-05-10T03:20:52.314Z,11.50
2023-05-10T03:23:18.842Z,10.80
2023-05-10T03:25:48.163Z,10.90
2023-05-10T03:28:15.786Z,10.40
2023-05-10T03:30:44.090Z,9.20
2023-05-10T03:33:13.777Z,9.10
2023-05-10T03:35:43.258Z,8.35
2023-05-10T03:38:09.871Z,8.23
2023-05-10T03:40:36.557Z,7.85
2023-05-10T03:43:03.388Z,6.95
2023-05-10T03:45:30.089Z,7.82
2023-05-10T03:47:57.330Z,8.05
2023-05-10T03:50:24.998Z,8.23
2023-05-10T03:52:53.530Z,9.32
2023-05-10T03:55:21.436Z,9.20
2023-05-10T03:57:50.576Z,10.30
2023-05-10T04:00:17.908Z,9.85
2023-05-10T04:02:47.996Z,10.13
2023-05-10T04:05:19.836Z,10.45
2023-05-10T04:07:48.073Z,10.40
2023-05-10T04:10:15.108Z,10.60
2023-05-10T04:12:42.092Z,11.15
2023-05-10T04:15:09.414Z,9.95
2023-05-10T04:17:36.147Z,10.27
2023-05-10T04:20:02.937Z,10.93
2023-05-10T04:22:30.093Z,10.27
2023-05-10T04:24:56.759Z,9.65
2023-05-10T04:27:23.489Z,9.18
2023-05-10T04:29:50.171Z,9.40
2023-05-10T04:32:18.132Z,8.68
2023-05-10T04:34:45.169Z,8.75
2023-05-10T04:37:11.857Z,7.85
2023-05-10T04:39:40.311Z,7.55
2023-05-10T04:42:09.012Z,8.43
2023-05-10T04:44:35.811Z,9.45
2023-05-10T04:47:03.277Z,10.30
2023-05-10T04:49:30.672Z,9.48
2023-05-10T04:51:57.332Z,10.90
2023-05-10T04:54:24.003Z,11.85
2023-05-10T04:56:50.581Z,11.30
2023-05-10T04:59:17.250Z,11.10
2023-05-10T05:01:44.316Z,12.55
2023-05-10T05:04:11.027Z,12.18
2023-05-10T05:06:37.629Z,12.75
2023-05-10T05:09:04.299Z,11.98
2023-05-10T05:11:30.979Z,12.60
2023-05-10T05:13:59.907Z,13.48
2023-05-10T05:16:27.023Z,13.32
2023-05-10T05:18:53.770Z,12.88
2023-05-10T05:21:21.010Z,12.35
2023-05-10T05:23:47.632Z,12.35
2023-05-10T05:26:14.284Z,12.45
2023-05-10T05:28:40.968Z,12.38
2023-05-10T05:31:08.782Z,12.57
2023-05-10T05:33:35.689Z,13.27
2023-05-10T05:36:04.050Z,12.48
2023-05-10T05:38:30.655Z,12.70
2023-05-10T05:40:58.329Z,12.00
2023-05-10T05:43:25.678Z,11.43
2023-05-10T05:45:55.624Z,12.00
2023-05-10T05:48:22.261Z,12.98
2023-05-10T05:50:48.881Z,12.90
2023-05-10T05:53:15.536Z,12.07
2023-05-10T05:55:52.077Z,11.80
2023-05-10T05:58:18.680Z,11.73
2023-05-10T06:00:45.948Z,11.73
2023-05-10T06:03:12.726Z,11.45
2023-05-10T06:05:39.407Z,10.95
2023-05-10T06:08:06.293Z,11.02
2023-05-10T06:10:33.006Z,10.43
2023-05-10T06:12:59.729Z,9.75
2023-05-10T06:15:27.100Z,9.27
2023-05-10T06:17:53.859Z,10.25
2023-05-10T06:20:20.470Z,10.30
2023-05-10T06:22:47.299Z,9.73
2023-05-10T06:25:15.510Z,9.68
2023-05-10T06:27:42.468Z,10.57
2023-05-10T06:30:13.309Z,10.70
2023-05-10T06:32:40.661Z,9.90
2023-05-10T06:35:07.833Z,10.65
2023-05-10T06:37:35.168Z,9.57
2023-05-10T06:40:01.874Z,9.80
2023-05-10T06:42:28.701Z,8.55
2023-05-10T06:44:55.327Z,8.85
2023-05-10T06:47:22.928Z,8.60
2023-05-10T06:49:49.571Z,7.82
2023-05-10T06:52:16.236Z,8.45
2023-05-10T06:54:42.928Z,8.40
2023-05-10T06:57:23.384Z,7.55
2023-05-10T06:59:57.206Z,8.18
2023-05-10T07:02:23.962Z,7.47
2023-05-10T07:04:51.136Z,6.53
2023-05-10T07:07:17.875Z,7.20
2023-05-10T07:09:44.529Z,6.03
2023-05-10T07:12:13.402Z,5.80
2023-05-10T07:14:41.846Z,5.80
2023-05-10T07:17:08.517Z,5.65
2023-05-10T07:19:35.235Z,5.43
2023-05-10T07:22:02.018Z,6.00
2023-05-10T07:24:28.751Z,5.50
2023-05-10T07:26:55.506Z,5.68
2023-05-10T07:29:22.144Z,5.53
2023-05-10T07:31:48.806Z,5.50
2023-05-10T07:34:15.465Z,5.80
2023-05-10T07:36:42.129Z,5.85
2023-05-10T07:39:08.908Z,6.10
2023-05-10T07:41:36.014Z,5.47
2023-05-10T07:44:02.872Z,6.13
2023-05-10T07:46:29.587Z,5.68
2023-05-10T07:48:56.548Z,6.18
2023-05-10T07:51:23.262Z,6.85
2023-05-10T07:53:49.943Z,7.47
2023-05-10T07:56:27.548Z,7.40
2023-05-10T07:58:55.349Z,8.10
2023-05-10T08:01:22.045Z,8.43
2023-05-10T08:03:49.232Z,8.93
2023-05-10T08:06:16.471Z,7.72
2023-05-10T08:08:43.403Z,9.13
2023-05-10T08:11:10.072Z,7.35
2023-05-10T08:13:36.758Z,7.20
2023-05-10T08:16:03.427Z,6.15
2023-05-10T08:18:30.112Z,5.60
2023-05-10T08:20:56.896Z,5.80
2023-05-10T08:23:23.521Z,6.30
2023-05-10T08:25:50.191Z,6.03
2023-05-10T08:28:16.827Z,5.85
2023-05-10T08:30:43.525Z,5.05
2023-05-10T08:33:10.174Z,5.05
2023-05-10T08:35:36.922Z,5.57
2023-05-10T08:38:03.577Z,5.97
2023-05-10T08:40:30.279Z,7.10
2023-05-10T08:43:07.082Z,7.18
2023-05-10T08:45:36.471Z,6.93
2023-05-10T08:48:03.827Z,6.63
2023-05-10T08:50:30.806Z,5.68
2023-05-10T08:52:59.107Z,4.68
2023-05-10T08:55:25.811Z,4.43
2023-05-10T08:57:52.734Z,5.40
2023-05-10T09:00:20.251Z,5.38
2023-05-10T09:02:47.043Z,5.10
2023-05-10T09:05:13.920Z,4.95
2023-05-10T09:07:40.587Z,4.30
2023-05-10T09:10:07.845Z,4.80
2023-05-10T09:12:34.537Z,4.93
2023-05-10T09:15:01.570Z,5.35
2023-05-10T09:17:29.069Z,4.93
2023-05-10T09:20:05.032Z,4.78
2023-05-10T09:22:32.583Z,5.00
2023-05-10T09:25:13.555Z,5.43
2023-05-10T09:27:41.364Z,5.78
2023-05-10T09:30:08.971Z,5.80
2023-05-10T09:32:43.240Z,6.18
2023-05-10T09:35:11.021Z,6.00
2023-05-10T09:37:37.824Z,7.35
2023-05-10T09:40:08.606Z,7.57
2023-05-10T09:42:36.092Z,7.03
2023-05-10T09:45:06.986Z,7.10
2023-05-10T09:47:37.187Z,7.07
2023-05-10T09:50:05.217Z,6.30
2023-05-10T09:52:33.194Z,7.22
2023-05-10T09:54:59.975Z,6.78
2023-05-10T09:57:27.089Z,7.50
2023-05-10T09:59:55.332Z,8.02
2023-05-10T10:02:22.371Z,7.90
2023-05-10T10:04:50.694Z,7.47
2023-05-10T10:07:23.926Z,7.45
2023-05-10T10:09:50.810Z,8.07
2023-05-10T10:12:17.527Z,7.82
2023-05-10T10:14:44.374Z,7.35
2023-05-10T10:17:11.471Z,8.25
2023-05-10T10:19:38.331Z,6.95
2023-05-10T10:22:05.611Z,8.35
2023-05-10T10:24:32.551Z,8.95
2023-05-10T10:27:09.002Z,9.07
2023-05-10T10:29:42.510Z,8.52
2023-05-10T10:32:31.679Z,8.95
2023-05-10T10:34:58.600Z,8.35
2023-05-10T10:37:42.425Z,8.43
2023-05-10T10:40:25.778Z,8.48
2023-05-10T10:42:53.004Z,8.45
2023-05-10T10:45:20.116Z,8.10
2023-05-10T10:47:46.808Z,8.73
2023-05-10T10:50:17.350Z,8.48
2023-05-10T10:52:44.828Z,7.63
2023-05-10T10:55:13.670Z,7.93
2023-05-10T10:57:49.587Z,7.20
2023-05-10T11:00:22.328Z,7.10
2023-05-10T11:02:59.408Z,6.67
2023-05-10T11:05:36.586Z,6.35
2023-05-10T11:08:12.419Z,6.85
2023-05-10T11:10:40.470Z,6.63
2023-05-10T11:13:08.990Z,6.72
2023-05-10T11:15:36.303Z,7.93
2023-05-10T11:18:22.994Z,8.05
2023-05-10T11:21:01.346Z,7.82
2023-05-10T11:23:48.252Z,6.53
2023-05-10T11:26:15.197Z,5.95
2023-05-10T11:28:49.252Z,5.82
2023-05-10T11:31:17.517Z,5.72
2023-05-10T11:34:05.318Z,6.00
2023-05-10T11:36:35.746Z,5.63
2023-05-10T11:39:02.908Z,5.97
2023-05-10T11:41:30.964Z,6.78
2023-05-10T11:43:58.507Z,7.22
2023-05-10T11:46:27.971Z,6.88
2023-05-10T11:48:58.615Z,6.80
2023-05-10T11:51:26.191Z,8.27
2023-05-10T11:53:57.086Z,8.50
2023-05-10T11:56:24.358Z,8.88
2023-05-10T11:58:58.516Z,9.45
2023-05-10T12:01:26.842Z,9.82
2023-05-10T12:03:54.849Z,10.38
2023-05-10T12:06:22.369Z,9.30
2023-05-10T12:08:53.464Z,8.25
2023-05-10T12:11:21.917Z,7.90
2023-05-10T12:13:48.811Z,8.93
2023-05-10T12:16:20.875Z,9.15
2023-05-10T12:18:52.161Z,9.88
2023-05-10T12:21:20.665Z,10.88
2023-05-10T12:23:49.133Z,12.50
2023-05-10T12:26:15.931Z,12.43
2023-05-10T12:28:42.886Z,11.70
2023-05-10T12:31:09.555Z,10.35
2023-05-10T12:33:39.774Z,10.77
2023-05-10T12:36:07.658Z,11.65
2023-05-10T12:38:39.246Z,11.55
2023-05-10T12:41:08.253Z,12.23
2023-05-10T12:43:35.440Z,10.90
2023-05-10T12:46:15.626Z,11.20
2023-05-10T12:48:43.450Z,12.02
2023-05-10T12:51:14.094Z,11.57
2023-05-10T12:53:42.760Z,10.18
2023-05-10T12:56:11.208Z,9.95
2023-05-10T12:58:37.780Z,10.57
2023-05-10T13:01:06.145Z,9.82
2023-05-10T13:03:33.108Z,9.63
2023-05-10T13:05:59.823Z,9.20
2023-05-10T13:08:26.491Z,9.15
2023-05-10T13:10:53.095Z,9.57
2023-05-10T13:13:19.763Z,8.38
2023-05-10T13:15:46.427Z,9.43
2023-05-10T13:18:13.044Z,8.43
2023-05-10T13:20:39.764Z,8.43
2023-05-10T13:23:06.409Z,8.88
2023-05-10T13:25:33.022Z,10.48
2023-05-10T13:27:59.645Z,9.93
2023-05-10T13:30:26.192Z,11.02
2023-05-10T13:32:52.836Z,10.27
2023-05-10T13:35:19.595Z,8.30
2023-05-10T13:37:46.348Z,9.10
2023-05-10T13:40:13.132Z,10.25
2023-05-10T13:42:39.740Z,10.30
2023-05-10T13:45:06.908Z,10.85
2023-05-10T13:47:33.481Z,10.35
2023-05-10T13:50:00.119Z,10.35
2023-05-10T13:52:27.264Z,10.35
2023-05-10T13:54:55.970Z,10.80
2023-05-10T13:57:23.936Z,10.15
2023-05-10T13:59:51.193Z,10.25
2023-05-10T14:02:17.913Z,9.85
2023-05-10T14:04:44.541Z,10.48
2023-05-10T14:07:11.114Z,9.43
2023-05-10T14:09:37.686Z,9.57
2023-05-10T14:12:04.635Z,10.95
2023-05-10T14:14:31.494Z,9.48
2023-05-10T14:16:58.128Z,9.13
2023-05-10T14:19:24.721Z,9.65
2023-05-10T14:21:52.925Z,9.43
2023-05-10T14:24:19.599Z,9.15
2023-05-10T14:26:46.316Z,9.60
2023-05-10T14:29:12.921Z,8.65
2023-05-10T14:31:39.694Z,9.00
2023-05-10T14:34:06.711Z,8.48
2023-05-10T14:36:33.514Z,9.38
2023-05-10T14:39:00.292Z,9.15
2023-05-10T14:41:26.879Z,9.00
2023-05-10T14:43:54.467Z,9.57
2023-05-10T14:46:21.156Z,9.93
2023-05-10T14:48:47.777Z,9.27
2023-05-10T14:51:14.621Z,10.27
2023-05-10T14:53:41.218Z,10.07
2023-05-10T14:56:08.095Z,10.30
2023-05-10T14:58:34.848Z,10.13
2023-05-10T15:01:01.829Z,10.50
2023-05-10T15:03:29.218Z,10.70
2023-05-10T15:05:58.501Z,10.07
2023-05-10T15:08:28.021Z,10.82
2023-05-10T15:10:56.412Z,8.52
2023-05-10T15:13:23.060Z,8.35
2023-05-10T15:15:49.671Z,8.55
2023-05-10T15:18:16.366Z,8.13
2023-05-10T15:20:43.211Z,8.55
2023-05-10T15:23:09.857Z,8.15
2023-05-10T15:25:38.126Z,7.95
2023-05-10T15:28:05.399Z,8.93
2023-05-10T15:30:32.038Z,9.23
2023-05-10T15:32:58.880Z,8.73
2023-05-10T15:35:26.888Z,8.90
2023-05-10T15:37:53.534Z,8.45
2023-05-10T15:40:20.408Z,9.38
2023-05-10T15:42:47.029Z,9.50
2023-05-10T15:45:14.099Z,9.30
2023-05-10T15:47:40.882Z,10.20
2023-05-10T15:50:08.752Z,9.88
2023-05-10T15:52:36.096Z,10.13
2023-05-10T15:55:03.574Z,9.93
2023-05-10T15:57:30.730Z,10.32
2023-05-10T15:59:58.220Z,10.18
2023-05-10T16:02:25.052Z,9.35
2023-05-10T16:04:51.807Z,9.38
2023-05-10T16:07:18.498Z,9.57
2023-05-10T16:09:45.217Z,10.63
2023-05-10T16:12:12.015Z,9.63
2023-05-10T16:14:38.609Z,10.30
2023-05-10T16:17:05.452Z,11.45
2023-05-10T16:19:32.354Z,10.70
2023-05-10T16:21:59.185Z,16.17
2023-05-10T16:24:26.308Z,13.05
2023-05-10T16:26:53.232Z,11.27
2023-05-10T16:29:19.843Z,10.20
2023-05-10T16:31:46.954Z,10.30
2023-05-10T16:34:13.649Z,10.73
2023-05-10T16:36:40.441Z,12.45
2023-05-10T16:39:07.084Z,10.93
2023-05-10T16:41:34.523Z,9.00
2023-05-10T16:44:01.807Z,8.00
2023-05-10T16:46:28.544Z,7.28
2023-05-10T16:48:55.752Z,8.80
2023-05-10T16:51:22.681Z,7.35
2023-05-10T16:53:49.346Z,8.07
2023-05-10T16:56:18.334Z,8.95
2023-05-10T16:58:45.017Z,10.35
2023-05-10T17:01:12.163Z,10.65
2023-05-10T17:03:38.976Z,9.23
2023-05-10T17:06:06.205Z,8.75
2023-05-10T17:08:33.408Z,10.68
2023-05-10T17:11:03.926Z,8.82
2023-05-10T17:13:31.077Z,10.70
2023-05-10T17:15:58.231Z,11.38
2023-05-10T17:18:26.562Z,7.32
2023-05-10T17:20:53.323Z,13.10
2023-05-10T17:23:19.985Z,11.48
2023-05-10T17:25:46.797Z,10.15
2023-05-10T17:28:13.395Z,10.93
2023-05-10T17:30:40.001Z,9.30
2023-05-10T17:33:06.776Z,11.80
2023-05-10T17:35:34.123Z,9.95
2023-05-10T17:38:00.883Z,11.35
2023-05-10T17:40:27.622Z,14.23
2023-05-10T17:42:54.254Z,16.60
2023-05-10T17:45:21.037Z,16.27
2023-05-10T17:47:47.792Z,10.13
2023-05-10T17:50:14.526Z,9.60
2023-05-10T17:52:41.241Z,8.65
2023-05-10T17:55:08.630Z,9.38
2023-05-10T17:57:38.032Z,10.27
2023-05-10T18:00:06.579Z,10.35
2023-05-10T18:02:33.318Z,10.55
2023-05-10T18:05:01.425Z,8.95
2023-05-10T18:07:30.015Z,9.40
2023-05-10T18:09:57.491Z,9.57
2023-05-10T18:12:24.593Z,10.20
2023-05-10T18:14:51.487Z,9.93
2023-05-10T18:17:18.317Z,9.90
2023-05-10T18:19:44.922Z,9.15
2023-05-10T18:22:11.713Z,10.43
2023-05-10T18:24:39.869Z,9.40
2023-05-10T18:27:08.821Z,10.48
2023-05-10T18:29:36.647Z,9.55
2023-05-10T18:32:03.275Z,9.68
2023-05-10T18:34:29.853Z,8.95
2023-05-10T18:36:56.620Z,9.32
2023-05-10T18:39:24.238Z,8.70
2023-05-10T18:41:50.939Z,9.32
2023-05-10T18:44:18.838Z,11.00
2023-05-10T18:46:45.596Z,11.10
2023-05-10T18:49:12.186Z,9.85
2023-05-10T18:51:38.851Z,9.18
2023-05-10T18:54:05.509Z,8.95
2023-05-10T18:56:32.127Z,9.63
2023-05-10T18:58:58.724Z,8.10
2023-05-10T19:01:25.518Z,8.73
2023-05-10T19:03:52.279Z,8.00
2023-05-10T19:06:18.953Z,7.63
2023-05-10T19:08:45.577Z,8.40
2023-05-10T19:11:12.472Z,7.20
2023-05-10T19:13:39.112Z,8.23
2023-05-10T19:16:10.210Z,8.55
2023-05-10T19:18:38.880Z,7.88
2023-05-10T19:21:09.471Z,7.05
2023-05-10T19:23:41.606Z,9.25
2023-05-10T19:26:09.521Z,7.80
2023-05-10T19:28:36.597Z,7.75
2023-05-10T19:31:03.481Z,7.35
2023-05-10T19:33:30.285Z,8.00
2023-05-10T19:35:56.983Z,7.13
2023-05-10T19:38:24.183Z,7.55
2023-05-10T19:40:57.446Z,7.28
2023-05-10T19:43:27.773Z,7.25
2023-05-10T19:45:55.399Z,7.82
2023-05-10T19:48:22.083Z,6.93
2023-05-10T19:50:48.699Z,7.15
2023-05-10T19:53:15.437Z,7.15
2023-05-10T19:55:42.131Z,8.07
2023-05-10T19:58:08.883Z,8.40
2023-05-10T20:00:35.839Z,7.70
2023-05-10T20:03:03.110Z,7.22
2023-05-10T20:05:29.825Z,7.47
2023-05-10T20:07:56.440Z,7.55
2023-05-10T20:10:25.173Z,7.45
2023-05-10T20:12:53.895Z,9.52
2023-05-10T20:15:22.885Z,10.02
2023-05-10T20:17:51.941Z,10.52
2023-05-10T20:20:20.103Z,9.65
2023-05-10T20:22:47.782Z,8.70
2023-05-10T20:25:14.725Z,9.15
2023-05-10T20:27:41.415Z,10.02
2023-05-10T20:30:08.438Z,9.65
2023-05-10T20:32:35.405Z,8.75
2023-05-10T20:35:02.284Z,9.10
2023-05-10T20:37:29.099Z,8.93
2023-05-10T20:39:56.452Z,9.85
2023-05-10T20:42:23.171Z,10.10
2023-05-10T20:44:50.265Z,10.80
2023-05-10T20:47:17.489Z,9.45
2023-05-10T20:49:44.163Z,10.73
2023-05-10T20:52:10.871Z,9.80
2023-05-10T20:54:37.510Z,9.80
2023-05-10T20:57:04.112Z,11.10
2023-05-10T20:59:30.716Z,10.43
2023-05-10T21:01:57.705Z,11.07
2023-05-10T21:04:25.504Z,12.13
2023-05-10T21:06:53.064Z,11.38
2023-05-10T21:09:19.777Z,11.88
2023-05-10T21:11:46.655Z,12.65
2023-05-10T21:14:13.335Z,11.43
2023-05-10T21:16:40.111Z,11.55
2023-05-10T21:19:07.659Z,12.30
2023-05-10T21:21:34.676Z,12.23
2023-05-10T21:24:01.332Z,11.07
2023-05-10T21:26:28.693Z,11.65
2023-05-10T21:28:55.481Z,12.75
2023-05-10T21:31:22.127Z,12.23
2023-05-10T21:33:48.841Z,12.52
2023-05-10T21:36:15.536Z,12.00
2023-05-10T21:38:44.390Z,12.48
2023-05-10T21:41:11.241Z,12.27
2023-05-10T21:43:37.940Z,12.00
2023-05-10T21:46:04.766Z,10.90
2023-05-10T21:48:31.463Z,11.77
2023-05-10T21:50:58.772Z,11.98
2023-05-10T21:53:25.379Z,11.55
2023-05-10T21:55:52.215Z,10.68
2023-05-10T21:58:18.926Z,10.95
2023-05-10T22:00:45.570Z,11.60
2023-05-10T22:03:12.310Z,10.82
2023-05-10T22:05:39.491Z,12.00
2023-05-10T22:08:06.916Z,11.32
2023-05-10T22:10:33.799Z,11.50
2023-05-10T22:13:00.549Z,23.02
2023-05-10T22:15:27.950Z,21.80
2023-05-10T22:17:54.666Z,15.98
2023-05-10T22:20:21.322Z,14.82
2023-05-10T22:22:47.958Z,14.02
2023-05-10T22:25:14.559Z,12.63
2023-05-10T22:27:41.427Z,12.40
2023-05-10T22:30:08.676Z,12.10
2023-05-10T22:32:35.321Z,12.70
2023-05-10T22:35:02.293Z,12.02
2023-05-10T22:37:28.891Z,11.35
2023-05-10T22:39:55.597Z,12.60
2023-05-10T22:42:22.224Z,11.95
2023-05-10T22:44:48.835Z,11.68
2023-05-10T22:47:16.400Z,11.98
2023-05-10T22:49:43.100Z,12.13
2023-05-10T22:52:09.724Z,12.13
2023-05-10T22:54:36.539Z,11.50
2023-05-10T22:57:03.450Z,12.63
2023-05-10T22:59:30.138Z,12.73
2023-05-10T23:01:56.770Z,12.50
2023-05-10T23:04:23.442Z,12.43
2023-05-10T23:06:50.097Z,12.88
2023-05-10T23:09:16.996Z,12.43
2023-05-10T23:11:43.749Z,13.13
2023-05-10T23:14:10.404Z,12.60
2023-05-10T23:16:37.092Z,13.30
2023-05-10T23:19:03.793Z,14.10
2023-05-10T23:21:32.210Z,13.85
2023-05-10T23:23:59.138Z,13.43
2023-05-10T23:26:25.907Z,14.13
2023-05-10T23:28:52.555Z,14.45
2023-05-10T23:31:19.281Z,14.77
2023-05-10T23:33:45.920Z,14.90
2023-05-10T23:36:12.584Z,15.35
2023-05-10T23:38:39.460Z,14.45
2023-05-10T23:41:06.203Z,16.45
2023-05-10T23:43:32.873Z,14.32
2023-05-10T23:45:59.682Z,16.23
2023-05-10T23:48:26.368Z,17.08
2023-05-10T23:50:53.021Z,16.33
2023-05-10T23:53:19.716Z,16.27
2023-05-10T23:55:46.508Z,16.88
2023-05-10T23:58:13.190Z,17.45
